Terminal Aerodrome Forecast
Issued by NWS Cleveland, OH

Home | Current Version | Previous Version | Graphics & Text | Print | Product List | Glossary On
Versions: 1 2 3 4 5 6 7 8 9 10 11 12 13 14 15
986
FTUS41 KCLE 122048 AAA
TAFMFD
TAF AMD
KMFD 122048Z 1221/1318 23012G22KT P6SM OVC060
      TEMPO 1221/1222 3SM -SHSN OVC025
     FM122300 27015G25KT 1 1/2SM -SHSN OVC025
      TEMPO 1223/1301 1/2SM SN BLSN OVC012
     FM130200 30015G25KT 3SM -SHSN OVC025
     FM130600 30012G22KT P6SM VCSH BKN025=

USA.gov is the U.S. government's official web portal to all federal, state and local government web resources and services.